Time;durP1;ratioP1;P1;durP2;ratioP2;P2;SDS_P1;SDS_P2;PMS_P1;PMS_P2;Temp;Humidity;BMP_temperature;BMP_pressure;BME280_temperature;BME280_humidity;BME280_pressure;Samples;Min_cycle;Max_cycle;Signal;HPM_P1;HPM_P2
2022/03/19 00:02:19;;;;;;;;;;;;;;;;;;;;;
2022/03/19 00:04:50;;;;;;;13.00;6.38;;;6.50;1.00;;;;;;5057435;28;20923;-86
2022/03/19 00:07:58;;;;;;;13.98;6.40;;;6.40;1.00;;;;;;5076265;28;20214;-89
2022/03/19 00:13:41;;;;;;;11.57;6.00;;;6.30;1.00;;;;;;5039359;28;20230;-89
2022/03/19 00:16:08;;;;;;;14.45;6.22;;;6.20;1.00;;;;;;5052672;28;20232;-89
2022/03/19 00:18:39;;;;;;;12.25;6.30;;;6.20;1.00;;;;;;5045803;28;20222;-89
2022/03/19 00:21:08;;;;;;;11.93;6.28;;;6.10;1.00;;;;;;5045643;28;20806;-87
2022/03/19 00:24:01;;;;;;;15.43;7.10;;;6.10;1.00;;;;;;5053656;28;20278;-88
2022/03/19 00:26:39;;;;;;;11.40;6.65;;;6.10;1.00;;;;;;5035326;28;20276;-88
2022/03/19 00:29:08;;;;;;;12.65;6.65;;;6.00;1.00;;;;;;5044363;28;20218;-89
2022/03/19 00:31:48;;;;;;;11.82;6.38;;;6.00;1.00;;;;;;5034753;28;20803;-85
2022/03/19 00:34:19;;;;;;;11.02;7.00;;;6.00;1.00;;;;;;5052862;28;20280;-90
2022/03/19 00:36:50;;;;;;;15.77;7.63;;;6.00;1.00;;;;;;5043093;28;20208;-88
2022/03/19 00:39:29;;;;;;;15.95;6.88;;;5.90;1.00;;;;;;5047411;28;20289;-90
2022/03/19 00:42:11;;;;;;;15.05;7.30;;;5.90;1.00;;;;;;5043135;28;20218;-87
2022/03/19 00:44:42;;;;;;;9.90;6.53;;;5.90;1.00;;;;;;5046458;28;20213;-85
2022/03/19 00:47:18;;;;;;;9.75;6.05;;;5.90;1.00;;;;;;5030504;28;20253;-89
2022/03/19 00:49:49;;;;;;;10.90;6.55;;;5.80;1.00;;;;;;5032778;28;20241;-88
2022/03/19 00:52:18;;;;;;;11.23;6.30;;;5.80;1.00;;;;;;5049990;28;20217;-89
2022/03/19 00:55:18;;;;;;;14.35;6.32;;;5.80;1.00;;;;;;5038836;28;20273;-89
2022/03/19 00:57:58;;;;;;;13.85;6.40;;;5.70;1.00;;;;;;5061886;28;20213;-88
2022/03/19 01:03:49;;;;;;;10.13;5.60;;;5.70;1.00;;;;;;4996467;28;20226;-90
2022/03/19 01:06:30;;;;;;;12.52;6.80;;;5.60;1.00;;;;;;5021771;28;20209;-90
2022/03/19 01:09:29;;;;;;;19.58;8.25;;;5.60;1.00;;;;;;5047477;28;20533;-88
2022/03/19 01:12:09;;;;;;;14.65;7.10;;;5.50;1.00;;;;;;5054022;28;21009;-89
2022/03/19 01:14:40;;;;;;;14.20;6.88;;;5.50;1.00;;;;;;5059534;28;20631;-88
2022/03/19 01:17:11;;;;;;;14.73;7.63;;;5.50;1.00;;;;;;5034234;28;20225;-90
2022/03/19 01:20:01;;;;;;;14.20;6.43;;;5.40;1.00;;;;;;5051644;28;20219;-89
2022/03/19 01:22:38;;;;;;;12.75;5.53;;;5.40;1.00;;;;;;5063703;28;20294;-90
2022/03/19 01:25:29;;;;;;;12.52;5.70;;;5.40;1.00;;;;;;5040085;28;20235;-87
2022/03/19 01:28:08;;;;;;;16.98;6.30;;;5.40;1.00;;;;;;5050804;28;20285;-90
2022/03/19 01:30:50;;;;;;;10.75;6.30;;;5.40;1.00;;;;;;5069511;28;21334;-87
2022/03/19 01:33:20;;;;;;;13.43;5.70;;;5.30;1.00;;;;;;5042446;28;20233;-89
2022/03/19 01:35:59;;;;;;;17.05;6.03;;;5.30;1.00;;;;;;5084770;22;20282;-87
2022/03/19 01:38:50;;;;;;;14.98;4.95;;;5.30;1.00;;;;;;5063210;28;20213;-90
2022/03/19 01:41:41;;;;;;;;;;;;;;;;;;;;;
2022/03/19 01:44:20;;;;;;;11.43;5.70;;;5.20;1.00;;;;;;5034468;28;20233;-89
2022/03/19 01:47:00;;;;;;;8.77;6.15;;;5.20;1.00;;;;;;5040342;28;20316;-89
2022/03/19 01:49:41;;;;;;;10.65;5.93;;;5.10;1.00;;;;;;5066703;28;20226;-89
2022/03/19 01:52:08;;;;;;;12.18;6.13;;;5.10;1.00;;;;;;5056572;28;20269;-88
2022/03/19 01:54:48;;;;;;;10.43;6.57;;;5.10;1.00;;;;;;5042167;28;20280;-88
2022/03/19 01:57:42;;;;;;;10.52;8.27;;;5.00;1.00;;;;;;5033241;28;20230;-86
2022/03/19 02:00:31;;;;;;;14.88;6.60;;;5.00;1.00;;;;;;5050947;28;20279;-88
2022/03/19 02:03:10;;;;;;;11.15;5.38;;;5.00;1.00;;;;;;5043353;28;20226;-89
2022/03/19 02:05:51;;;;;;;14.60;6.30;;;4.90;1.00;;;;;;5038067;28;20249;-88
2022/03/19 02:08:21;;;;;;;9.88;6.03;;;4.90;1.00;;;;;;5038371;28;20326;-89
2022/03/19 02:10:51;;;;;;;10.63;5.57;;;4.90;1.00;;;;;;5062937;28;20214;-89
2022/03/19 02:13:31;;;;;;;9.93;7.10;;;4.80;1.00;;;;;;5050541;28;20326;-88
2022/03/19 02:16:20;;;;;;;9.10;6.00;;;4.80;1.00;;;;;;5029196;28;20234;-89
2022/03/19 02:18:50;;;;;;;12.88;6.50;;;4.80;1.00;;;;;;5056342;28;20272;-90
2022/03/19 02:21:40;;;;;;;12.73;5.70;;;4.80;1.00;;;;;;5046564;28;20224;-86
2022/03/19 02:27:50;;;;;;;;;;;;;;;;;;;;;
2022/03/19 02:30:58;;;;;;;13.85;7.03;;;4.70;1.00;;;;;;5036552;28;20249;-90
2022/03/19 02:33:31;;;;;;;13.68;6.20;;;4.70;1.00;;;;;;4994309;28;20232;-89
2022/03/19 02:35:59;;;;;;;14.15;5.70;;;4.70;1.00;;;;;;5051728;28;20229;-91
2022/03/19 02:38:30;;;;;;;13.57;5.80;;;4.60;1.00;;;;;;5048225;28;20234;-90
2022/03/19 02:40:58;;;;;;;15.38;6.82;;;4.60;1.00;;;;;;5046398;28;20230;-89
2022/03/19 02:43:30;;;;;;;14.38;6.25;;;4.60;1.00;;;;;;5046066;28;20288;-89
2022/03/19 02:46:01;;;;;;;13.50;6.38;;;4.60;1.00;;;;;;5041323;28;20239;-90
2022/03/19 02:48:41;;;;;;;13.18;6.43;;;4.60;1.00;;;;;;5037139;28;20217;-88
2022/03/19 02:51:13;;;;;;;10.27;5.53;;;4.60;1.00;;;;;;5056095;28;20220;-88
2022/03/19 02:53:40;;;;;;;13.68;6.40;;;4.60;1.00;;;;;;5049361;28;20249;-90
2022/03/19 02:56:19;;;;;;;13.68;5.88;;;4.60;1.00;;;;;;5023329;28;20295;-88
2022/03/19 02:59:01;;;;;;;11.45;6.00;;;4.50;1.00;;;;;;5037000;28;20209;-89
2022/03/19 03:01:31;;;;;;;13.27;5.65;;;4.50;1.00;;;;;;5050023;28;20225;-90
2022/03/19 03:07:12;;;;;;;9.60;5.20;;;4.40;1.00;;;;;;5029450;28;20212;-89
2022/03/19 03:09:49;;;;;;;9.48;5.13;;;4.40;1.00;;;;;;5052129;28;20226;-89
2022/03/19 03:12:32;;;;;;;;;;;;;;;;;;;;;
2022/03/19 03:15:10;;;;;;;9.63;5.18;;;4.30;1.00;;;;;;5036347;28;20221;-89
2022/03/19 03:17:42;;;;;;;15.35;5.70;;;4.20;1.00;;;;;;5057015;28;20297;-90
2022/03/19 03:20:20;;;;;;;8.63;5.03;;;4.20;1.00;;;;;;5061245;28;20238;-89
2022/03/19 03:25:40;;;;;;;11.95;6.13;;;4.20;1.00;;;;;;5076193;28;20225;-90
2022/03/19 03:28:27;;;;;;;14.52;5.90;;;4.20;1.00;;;;;;5062039;28;20213;-91
2022/03/19 03:31:09;;;;;;;9.57;5.70;;;4.10;1.00;;;;;;5075266;28;20237;-88
2022/03/19 03:33:51;;;;;;;11.10;6.38;;;4.20;1.00;;;;;;5050020;28;20213;-89
2022/03/19 03:36:22;;;;;;;11.63;5.45;;;4.10;1.00;;;;;;5066457;28;20232;-90
2022/03/19 03:38:51;;;;;;;10.55;5.60;;;4.10;1.00;;;;;;5051575;28;20228;-88
2022/03/19 03:41:31;;;;;;;13.98;6.05;;;4.10;1.00;;;;;;5047644;28;20221;-87
2022/03/19 03:44:10;;;;;;;11.65;5.68;;;4.10;1.00;;;;;;5065765;28;20265;-87
2022/03/19 03:46:40;;;;;;;18.23;6.95;;;4.00;1.00;;;;;;5055950;28;20245;-88
2022/03/19 03:49:11;;;;;;;9.85;5.85;;;4.00;1.00;;;;;;5065165;28;20228;-88
2022/03/19 03:51:41;;;;;;;14.25;6.22;;;4.00;1.00;;;;;;5047570;28;20293;-89
2022/03/19 03:54:11;;;;;;;12.85;5.65;;;3.90;1.00;;;;;;5074320;28;20194;-88
2022/03/19 03:56:44;;;;;;;13.27;7.47;;;3.90;1.00;;;;;;5073411;28;20220;-89
2022/03/19 03:59:41;;;;;;;13.50;5.60;;;3.90;1.00;;;;;;5062555;28;21109;-89
2022/03/19 04:02:11;;;;;;;10.82;5.35;;;3.90;1.00;;;;;;5052653;28;20212;-88
2022/03/19 04:04:42;;;;;;;10.80;4.95;;;3.80;1.00;;;;;;5054963;28;20209;-89
2022/03/19 04:07:09;;;;;;;15.52;6.57;;;3.80;1.00;;;;;;5075414;28;20222;-90
2022/03/19 04:09:50;;;;;;;;;;;;;;;;;;;;;
2022/03/19 04:12:31;;;;;;;13.75;5.82;;;3.70;1.00;;;;;;4993695;28;20212;-89
2022/03/19 04:15:22;;;;;;;;;;;;;;;;;;;;;
2022/03/19 04:18:13;;;;;;;8.40;5.25;;;3.70;1.00;;;;;;5061758;28;20228;-89
2022/03/19 04:21:00;;;;;;;15.82;5.70;;;3.70;1.00;;;;;;5059619;28;20232;-89
2022/03/19 04:23:50;;;;;;;11.18;5.30;;;3.60;1.00;;;;;;5069745;27;20217;-92
2022/03/19 04:26:32;;;;;;;15.20;5.30;;;3.60;1.00;;;;;;5080513;27;20225;-90
2022/03/19 04:29:18;;;;;;;12.18;5.15;;;3.60;1.00;;;;;;5055965;28;20279;-89
2022/03/19 04:32:11;;;;;;;15.68;5.95;;;3.60;1.00;;;;;;5037138;28;20231;-92
2022/03/19 04:38:30;;;;;;;11.75;5.53;;;3.60;1.00;;;;;;5069449;28;20226;-89
2022/03/19 04:41:01;;;;;;;41.75;36.00;;;3.50;1.00;;;;;;5058570;28;20244;-91
2022/03/19 04:43:40;;;;;;;12.00;5.85;;;3.50;1.00;;;;;;5076590;28;21027;-90
2022/03/19 04:47:02;;;;;;;;;;;;;;;;;;;;;
2022/03/19 04:50:20;;;;;;;12.55;5.28;;;3.50;1.00;;;;;;5074398;28;20221;-89
2022/03/19 04:53:00;;;;;;;12.07;5.35;;;3.40;1.00;;;;;;4992537;28;20234;-86
2022/03/19 04:55:30;;;;;;;13.95;5.70;;;3.40;1.00;;;;;;4980473;28;20228;-90
2022/03/19 05:04:58;;;;;;;;;;;;;;;;;;;;;
2022/03/19 05:32:30;;;;;;;14.55;5.85;;;3.30;1.00;;;;;;5237761;22;20236;-86
2022/03/19 05:35:52;;;;;;;9.18;4.55;;;3.30;1.00;;;;;;5007722;28;20260;-88
2022/03/19 05:41:32;;;;;;;11.57;5.00;;;3.30;1.00;;;;;;5012560;28;20245;-85
2022/03/19 05:44:10;;;;;;;7.97;5.47;;;3.30;1.00;;;;;;5035004;28;20618;-85
2022/03/19 05:46:41;;;;;;;9.40;4.47;;;3.30;1.00;;;;;;5045978;28;20289;-90
2022/03/19 05:52:11;;;;;;;12.05;5.60;;;3.30;1.00;;;;;;5051983;23;40185;-86
2022/03/19 05:54:38;;;;;;;10.85;5.40;;;3.40;1.00;;;;;;5032196;28;20313;-87
2022/03/19 05:57:11;;;;;;;8.65;5.15;;;3.40;1.00;;;;;;5034344;28;20270;-90
2022/03/19 06:00:00;;;;;;;11.75;5.15;;;3.50;1.00;;;;;;5029804;28;20229;-89
2022/03/19 06:02:30;;;;;;;14.23;5.97;;;3.50;1.00;;;;;;5023239;28;20233;-87
2022/03/19 06:05:00;;;;;;;11.50;4.57;;;3.50;1.00;;;;;;5014553;28;20230;-87
2022/03/19 06:07:29;;;;;;;11.10;5.03;;;3.60;1.00;;;;;;5001302;28;20773;-87
2022/03/19 06:16:22;;;;;;;10.07;6.38;;;3.80;1.00;;;;;;5040733;28;20234;-88
2022/03/19 06:18:50;;;;;;;12.85;5.75;;;3.90;1.00;;;;;;5032905;28;20226;-87
2022/03/19 06:21:23;;;;;;;13.50;5.88;;;4.00;1.00;;;;;;5041300;23;20231;-88
2022/03/19 06:23:52;;;;;;;12.27;4.57;;;4.00;1.00;;;;;;5030321;28;20246;-88
2022/03/19 06:26:27;;;;;;;14.88;7.40;;;4.10;1.00;;;;;;5027224;28;20248;-89
2022/03/19 06:28:58;;;;;;;12.90;5.45;;;4.10;1.00;;;;;;5037600;28;20221;-86
2022/03/19 06:31:26;;;;;;;10.63;4.50;;;4.20;1.00;;;;;;5027084;28;20223;-88
2022/03/19 06:34:03;;;;;;;11.02;5.53;;;4.40;1.00;;;;;;5027830;28;20306;-88
2022/03/19 06:42:02;;;;;;;8.65;4.60;;;4.70;1.00;;;;;;4975405;28;20239;-87
2022/03/19 06:44:29;;;;;;;8.75;4.15;;;4.70;1.00;;;;;;4980187;28;20220;-87
2022/03/19 06:47:02;;;;;;;10.32;4.55;;;4.80;1.00;;;;;;4984059;28;20228;-90
2022/03/19 06:49:29;;;;;;;9.52;4.13;;;4.90;1.00;;;;;;4986262;28;20232;-83
2022/03/19 06:52:04;;;;;;;8.82;4.15;;;5.00;1.00;;;;;;5151877;23;20295;-86
2022/03/19 06:54:30;;;;;;;9.05;4.13;;;5.10;1.00;;;;;;5024951;28;20233;-85
2022/03/19 06:57:02;;;;;;;9.35;4.70;;;5.20;1.00;;;;;;5026953;28;20215;-86
2022/03/19 06:59:28;;;;;;;10.85;4.18;;;5.30;1.00;;;;;;5009256;23;20227;-83
2022/03/19 07:02:01;;;;;;;10.85;3.80;;;5.40;1.00;;;;;;4988014;28;20262;-83
2022/03/19 07:04:28;;;;;;;11.60;4.22;;;5.50;1.00;;;;;;4988083;28;20232;-87
2022/03/19 07:07:00;;;;;;;6.60;3.47;;;5.60;1.00;;;;;;4991619;28;20243;-87
2022/03/19 07:09:27;;;;;;;10.60;4.15;;;5.70;1.00;;;;;;5001328;23;20238;-85
2022/03/19 07:11:59;;;;;;;8.50;3.22;;;5.80;1.00;;;;;;4973008;28;20240;-85
2022/03/19 07:14:27;;;;;;;7.78;3.97;;;5.90;1.00;;;;;;4978069;28;20220;-85
2022/03/19 07:17:03;;;;;;;10.07;4.65;;;6.00;1.00;;;;;;4975898;28;20408;-86
2022/03/19 07:19:30;;;;;;;7.72;3.78;;;6.20;1.00;;;;;;4988130;23;20217;-86
2022/03/19 07:22:00;;;;;;;9.40;3.70;;;6.30;1.00;;;;;;4975805;28;20280;-83
2022/03/19 07:24:27;;;;;;;9.65;3.05;;;6.40;1.00;;;;;;4972649;28;20252;-86
2022/03/19 07:27:06;;;;;;;6.65;3.85;;;6.60;1.00;;;;;;4966592;28;20236;-83
2022/03/19 07:29:46;;;;;;;;;;;;;;;;;;;;;
2022/03/19 07:32:13;;;;;;;8.82;3.78;;;7.00;1.00;;;;;;4990730;28;22241;-85
2022/03/19 07:34:40;;;;;;;10.70;3.70;;;7.20;1.00;;;;;;4995138;28;20219;-86
2022/03/19 07:37:06;;;;;;;6.35;3.05;;;7.20;1.00;;;;;;4991245;28;20224;-84
2022/03/19 07:39:41;;;;;;;8.95;3.80;;;7.20;1.00;;;;;;4995003;23;20227;-87
2022/03/19 07:42:10;;;;;;;10.50;3.47;;;7.10;1.00;;;;;;4972030;28;20208;-87
2022/03/19 07:44:49;;;;;;;6.35;3.17;;;7.20;1.00;;;;;;4973525;28;20224;-86
2022/03/19 07:47:40;;;;;;;7.35;2.67;;;7.20;1.00;;;;;;4974448;28;20228;-89
2022/03/19 07:50:12;;;;;;;5.65;3.55;;;7.30;1.00;;;;;;4975444;23;20229;-87
2022/03/19 07:52:43;;;;;;;12.23;3.70;;;7.50;1.00;;;;;;4973256;28;20220;-87
2022/03/19 07:55:21;;;;;;;9.52;3.70;;;7.60;1.00;;;;;;4975485;28;20204;-85
2022/03/19 07:57:48;;;;;;;5.15;3.30;;;7.80;1.00;;;;;;4971422;28;20233;-85
2022/03/19 08:00:53;;;;;;;;;;;;;;;;;;;;;
2022/03/19 08:03:33;;;;;;;9.15;3.80;;;8.10;1.00;;;;;;4984859;28;20224;-86
2022/03/19 08:06:21;;;;;;;6.05;3.10;;;8.10;1.00;;;;;;4973371;28;20230;-87
2022/03/19 08:08:50;;;;;;;6.45;2.60;;;8.20;1.00;;;;;;4974549;28;20344;-82
2022/03/19 08:11:31;;;;;;;11.02;3.30;;;8.20;1.00;;;;;;4997002;23;20243;-84
2022/03/19 08:14:20;;;;;;;7.28;2.83;;;8.00;1.00;;;;;;5000576;28;20233;-85
2022/03/19 08:16:59;;;;;;;9.90;3.65;;;8.00;1.00;;;;;;4996692;28;20253;-87
2022/03/19 08:19:33;;;;;;;6.40;2.58;;;8.10;1.00;;;;;;5002466;28;20216;-85
2022/03/19 08:22:13;;;;;;;10.73;3.53;;;8.30;1.00;;;;;;4996887;28;20235;-87
2022/03/19 08:24:43;;;;;;;12.30;4.10;;;8.50;1.00;;;;;;4981353;28;20231;-87
2022/03/19 08:27:13;;;;;;;9.13;5.15;;;8.80;1.00;;;;;;4983920;28;20260;-85
2022/03/19 08:29:42;;;;;;;5.68;3.17;;;9.00;1.00;;;;;;5012010;23;21658;-87
2022/03/19 08:32:12;;;;;;;12.20;4.03;;;9.20;1.00;;;;;;5026960;28;20199;-86
2022/03/19 08:34:43;;;;;;;9.05;2.60;;;9.50;1.00;;;;;;5018063;28;20545;-88
2022/03/19 08:37:10;;;;;;;11.18;3.85;;;9.70;1.00;;;;;;5039006;28;20211;-86
2022/03/19 08:42:39;;;;;;;7.03;3.47;;;10.20;1.00;;;;;;5040668;28;20437;-86
2022/03/19 08:45:22;;;;;;;6.33;3.30;;;10.60;1.00;;;;;;5036498;28;20401;-87
2022/03/19 08:48:01;;;;;;;8.03;3.70;;;10.70;1.00;;;;;;5021668;28;20503;-87
2022/03/19 08:50:32;;;;;;;9.10;3.60;;;10.70;1.00;;;;;;5039592;23;24580;-86
2022/03/19 08:52:59;;;;;;;6.80;3.40;;;10.80;1.00;;;;;;5026694;28;20481;-87
2022/03/19 08:55:30;;;;;;;10.73;4.13;;;10.80;1.00;;;;;;5031156;28;20430;-85
2022/03/19 08:57:57;;;;;;;7.40;2.43;;;10.90;1.00;;;;;;5028068;28;20454;-84
2022/03/19 09:00:33;;;;;;;7.40;2.30;;;10.90;1.00;;;;;;5030488;28;20472;-85
2022/03/19 09:03:02;;;;;;;11.13;3.10;;;11.00;1.00;;;;;;5028986;28;20445;-87
2022/03/19 09:05:33;;;;;;;8.13;3.37;;;11.20;1.00;;;;;;5034971;28;21169;-87
2022/03/19 09:08:03;;;;;;;8.53;3.00;;;11.30;1.00;;;;;;5015169;28;20457;-86
2022/03/19 09:10:33;;;;;;;8.33;2.70;;;11.20;1.00;;;;;;5037194;23;20482;-88
2022/03/19 09:13:02;;;;;;;10.67;3.47;;;11.30;1.00;;;;;;5038246;28;20458;-89
2022/03/19 09:15:30;;;;;;;10.70;2.80;;;11.40;1.00;;;;;;5029696;28;20420;-88
2022/03/19 09:18:09;;;;;;;6.43;2.83;;;11.70;1.00;;;;;;5030680;28;20433;-86
2022/03/19 09:20:42;;;;;;;5.77;2.77;;;12.00;1.00;;;;;;5030577;23;20453;-87
2022/03/19 09:23:20;;;;;;;6.13;3.00;;;12.90;1.00;;;;;;5017833;28;20463;-88
2022/03/19 09:26:02;;;;;;;4.50;2.40;;;14.50;1.00;;;;;;5008439;28;20415;-84
2022/03/19 09:28:32;;;;;;;5.73;2.70;;;16.40;1.00;;;;;;5015652;28;20465;-84
2022/03/19 09:31:00;;;;;;;7.13;2.83;;;18.30;1.00;;;;;;5018752;23;20423;-88
2022/03/19 09:33:32;;;;;;;9.53;3.87;;;19.80;1.00;;;;;;5021430;28;20431;-86
2022/03/19 09:36:01;;;;;;;6.90;2.60;;;20.90;1.00;;;;;;4994676;28;20430;-87
2022/03/19 09:38:31;;;;;;;7.77;3.17;;;21.70;1.00;;;;;;5009240;28;20399;-87
2022/03/19 09:41:12;;;;;;;4.77;3.40;;;22.20;1.00;;;;;;5021201;23;20431;-87
2022/03/19 09:43:50;;;;;;;5.27;2.63;;;22.30;1.00;;;;;;5014667;28;20418;-88
2022/03/19 09:46:20;;;;;;;8.10;2.90;;;22.20;1.00;;;;;;5017442;28;20571;-87
2022/03/19 09:49:02;;;;;;;6.00;3.10;;;22.60;1.00;;;;;;4999503;28;20459;-89
2022/03/19 09:52:03;;;;;;;4.67;2.83;;;23.00;1.00;;;;;;5046949;23;20453;-85
2022/03/19 09:54:30;;;;;;;6.93;3.10;;;23.20;1.00;;;;;;5033769;28;20393;-88
2022/03/19 09:57:00;;;;;;;6.50;3.40;;;24.00;1.00;;;;;;5026543;28;20477;-89
2022/03/19 09:59:35;;;;;;;10.47;3.13;;;24.50;1.00;;;;;;5054127;23;20446;-88
2022/03/19 10:02:21;;;;;;;6.57;3.17;;;24.50;1.00;;;;;;5011093;28;20443;-85
2022/03/19 10:04:53;;;;;;;6.33;3.53;;;23.40;1.00;;;;;;4996706;28;20449;-87
2022/03/19 10:16:12;;;;;;;6.07;3.37;;;19.40;1.00;;;;;;4968472;26;20420;-87
2022/03/19 10:18:42;;;;;;;7.07;3.40;;;19.20;1.00;;;;;;4983842;28;20453;-90
2022/03/19 10:21:24;;;;;;;5.67;3.10;;;19.80;1.00;;;;;;5044319;22;20784;-89
2022/03/19 10:23:51;;;;;;;6.17;3.53;;;19.80;1.00;;;;;;5026265;28;20475;-90
2022/03/19 10:26:26;;;;;;;5.70;3.53;;;20.40;1.00;;;;;;5022513;28;20411;-86
2022/03/19 10:29:02;;;;;;;6.50;3.80;;;20.40;1.00;;;;;;5003396;28;20463;-87
2022/03/19 10:31:43;;;;;;;;;;;;;;;;;;;;;
2022/03/19 10:34:11;;;;;;;4.70;3.43;;;20.70;1.00;;;;;;5029261;28;20459;-88
2022/03/19 10:36:47;;;;;;;8.27;4.03;;;20.40;1.00;;;;;;5028512;28;20410;-87
2022/03/19 10:41:52;;;;;;;4.60;3.50;;;19.60;1.00;;;;;;4952317;28;20449;-85
2022/03/19 10:44:24;;;;;;;12.40;4.27;;;18.30;1.00;;;;;;4954542;28;20483;-89
2022/03/19 10:46:52;;;;;;;10.00;4.50;;;16.90;1.00;;;;;;4960576;28;20441;-91
2022/03/19 10:49:24;;;;;;;7.03;4.57;;;17.60;1.00;;;;;;4961614;28;20520;-87
2022/03/19 10:51:53;;;;;;;9.97;5.70;;;19.70;1.00;;;;;;4963378;28;20421;-88
2022/03/19 10:54:20;;;;;;;6.53;4.13;;;21.40;1.00;;;;;;4961099;28;20465;-88
2022/03/19 10:56:48;;;;;;;6.77;3.97;;;21.60;1.00;;;;;;4943319;28;20603;-85
2022/03/19 10:59:15;;;;;;;9.37;4.90;;;21.30;1.00;;;;;;4940210;28;20927;-85
2022/03/19 11:01:43;;;;;;;6.57;4.67;;;21.10;1.00;;;;;;4937868;28;20552;-83
2022/03/19 11:04:11;;;;;;;5.97;4.50;;;21.00;1.00;;;;;;4942093;28;20509;-81
2022/03/19 11:06:39;;;;;;;10.23;6.13;;;21.70;1.00;;;;;;4942200;28;20457;-84
2022/03/19 11:09:10;;;;;;;7.37;4.70;;;22.00;1.00;;;;;;4935638;28;20470;-84
2022/03/19 11:11:43;;;;;;;10.03;5.50;;;20.60;1.00;;;;;;4945390;28;20414;-85
2022/03/19 11:14:17;;;;;;;10.00;5.27;;;18.80;1.00;;;;;;4937751;28;21396;-83
2022/03/19 11:17:23;;;;;;;8.77;5.63;;;16.70;1.00;;;;;;4937823;28;21150;-84
2022/03/19 11:19:37;;;;;;;9.17;4.90;;;15.80;1.00;;;;;;4939062;28;20488;-84
2022/03/19 11:22:04;;;;;;;8.20;4.63;;;17.00;1.00;;;;;;4938515;28;20508;-84
2022/03/19 11:24:37;;;;;;;7.77;4.67;;;18.20;1.00;;;;;;4945556;28;20473;-82
2022/03/19 11:27:04;;;;;;;7.30;4.87;;;18.20;1.00;;;;;;4943237;28;20454;-83
2022/03/19 11:29:32;;;;;;;6.47;4.70;;;16.80;1.00;;;;;;4942983;28;21376;-85
2022/03/19 11:32:05;;;;;;;7.47;5.07;;;17.40;1.00;;;;;;4943721;28;20445;-83
2022/03/19 11:34:44;;;;;;;8.00;4.90;;;18.90;1.00;;;;;;4948219;28;20463;-83
2022/03/19 11:37:11;;;;;;;7.50;5.20;;;19.60;1.00;;;;;;4941911;28;20552;-82
2022/03/19 11:40:02;;;;;;;7.77;6.00;;;18.50;1.00;;;;;;4945456;28;20417;-82
2022/03/19 11:42:30;;;;;;;9.80;7.07;;;16.30;1.00;;;;;;4956177;28;20469;-85
2022/03/19 11:45:11;;;;;;;11.93;7.13;;;14.70;1.00;;;;;;4957304;28;20544;-85
2022/03/19 11:47:47;;;;;;;9.67;7.07;;;15.00;1.00;;;;;;4953689;28;20492;-83
2022/03/19 11:50:31;;;;;;;10.67;7.27;;;15.10;1.00;;;;;;4979466;23;21273;-84
2022/03/19 11:53:07;;;;;;;11.13;8.70;;;16.50;1.00;;;;;;5005748;28;20517;-85
2022/03/19 11:55:43;;;;;;;12.23;9.60;;;18.30;1.00;;;;;;5013815;28;21197;-82
2022/03/19 11:58:40;;;;;;;13.93;9.00;;;20.30;1.00;;;;;;5007934;28;20411;-82
2022/03/19 12:01:11;;;;;;;14.80;9.83;;;22.40;1.00;;;;;;5015565;28;20422;-83
2022/03/19 12:04:11;;;;;;;11.10;8.63;;;23.80;1.00;;;;;;5013997;28;20544;-83
2022/03/19 12:06:39;;;;;;;12.53;9.60;;;23.80;1.00;;;;;;5009114;28;20462;-81
2022/03/19 12:09:09;;;;;;;9.77;8.07;;;22.90;1.00;;;;;;5000323;28;20438;-80
2022/03/19 12:12:23;;;;;;;10.57;8.47;;;20.60;1.00;;;;;;5009560;28;20431;-81
2022/03/19 12:14:52;;;;;;;12.50;9.20;;;18.80;1.00;;;;;;4999599;28;20522;-84
2022/03/19 12:17:21;;;;;;;9.50;7.70;;;18.00;1.00;;;;;;5003020;28;20541;-82
2022/03/19 12:19:54;;;;;;;9.60;7.93;;;17.60;1.00;;;;;;4994939;28;21133;-82
2022/03/19 12:22:34;;;;;;;11.10;7.70;;;17.00;1.00;;;;;;5003951;28;20456;-80
2022/03/19 12:25:12;;;;;;;12.50;9.07;;;16.00;1.00;;;;;;5006957;28;21049;-81
2022/03/19 12:27:40;;;;;;;10.37;8.33;;;16.20;1.00;;;;;;5001386;28;20470;-81
2022/03/19 12:30:11;;;;;;;13.50;9.10;;;17.10;1.00;;;;;;5004165;28;20621;-81
2022/03/19 12:32:54;;;;;;;13.07;9.10;;;17.70;1.00;;;;;;5001344;28;20463;-81
2022/03/19 12:35:21;;;;;;;12.10;9.90;;;17.90;1.00;;;;;;5003466;28;20503;-81
2022/03/19 12:37:50;;;;;;;12.80;9.70;;;18.60;1.00;;;;;;5008748;28;20423;-81
2022/03/19 12:40:27;;;;;;;14.80;11.50;;;18.50;1.00;;;;;;5006166;28;20455;-82
2022/03/19 12:42:59;;;;;;;15.47;12.10;;;18.30;1.00;;;;;;5014168;28;20514;-81
2022/03/19 12:45:38;;;;;;;20.67;14.87;;;17.80;1.00;;;;;;4993774;28;20421;-81
2022/03/19 12:48:49;;;;;;;14.97;12.97;;;18.90;1.00;;;;;;5009003;28;20459;-82
2022/03/19 12:51:28;;;;;;;14.40;13.00;;;19.90;1.00;;;;;;5370890;23;20445;-81
2022/03/19 12:53:58;;;;;;;17.23;15.37;;;21.10;1.00;;;;;;5026176;28;20496;-81
2022/03/19 12:56:29;;;;;;;16.60;14.73;;;21.50;1.00;;;;;;5029468;28;20450;-81
2022/03/19 12:58:59;;;;;;;17.47;14.80;;;21.30;1.00;;;;;;5022229;28;20410;-81
2022/03/19 13:01:45;;;;;;;17.97;16.27;;;21.70;1.00;;;;;;5008130;28;20391;-81
2022/03/19 13:04:27;;;;;;;18.47;16.47;;;23.00;1.00;;;;;;5005495;28;20408;-82
2022/03/19 13:06:58;;;;;;;16.77;15.23;;;24.00;1.00;;;;;;5002910;28;20462;-83
2022/03/19 13:09:39;;;;;;;16.77;15.27;;;24.20;1.00;;;;;;5001160;28;20439;-82
2022/03/19 13:12:08;;;;;;;17.40;15.60;;;24.80;1.00;;;;;;5006050;28;20593;-82
2022/03/19 13:14:38;;;;;;;17.60;16.00;;;24.90;1.00;;;;;;5007188;28;20426;-82
2022/03/19 13:17:06;;;;;;;16.90;15.20;;;24.60;1.00;;;;;;5005379;28;20457;-81
2022/03/19 13:19:37;;;;;;;16.77;14.90;;;24.20;1.00;;;;;;5013361;28;20509;-81
2022/03/19 13:22:03;;;;;;;18.03;16.23;;;24.10;1.00;;;;;;5010373;28;21044;-81
2022/03/19 13:24:49;;;;;;;17.60;15.80;;;23.70;1.00;;;;;;5016599;28;20574;-82
2022/03/19 13:30:33;;;;;;;17.90;16.10;;;22.10;1.00;;;;;;5005338;23;20414;-81
2022/03/19 13:33:04;;;;;;;19.00;16.13;;;20.60;1.00;;;;;;5034381;28;20521;-78
2022/03/19 13:35:39;;;;;;;16.60;15.00;;;20.60;1.00;;;;;;5031244;28;20485;-80
2022/03/19 13:38:10;;;;;;;17.70;15.80;;;20.70;1.00;;;;;;5038023;28;20414;-81
2022/03/19 13:40:38;;;;;;;17.83;16.20;;;19.40;1.00;;;;;;5033866;23;20459;-81
2022/03/19 13:43:06;;;;;;;21.87;16.23;;;18.00;1.00;;;;;;5029683;28;20642;-82
2022/03/19 13:45:48;;;;;;;16.47;14.97;;;17.10;1.00;;;;;;5020135;28;20513;-82
2022/03/19 13:48:25;;;;;;;17.87;16.07;;;16.50;1.00;;;;;;5023726;28;20430;-80
2022/03/19 13:50:59;;;;;;;17.87;16.20;;;15.80;1.00;;;;;;5090395;23;21034;-82
2022/03/19 13:53:46;;;;;;;16.97;14.97;;;15.10;1.00;;;;;;5001449;28;20446;-81
2022/03/19 13:56:13;;;;;;;16.10;14.37;;;14.80;1.00;;;;;;5000810;28;20533;-81
2022/03/19 13:58:58;;;;;;;15.57;14.07;;;14.80;1.00;;;;;;5005967;28;20447;-81
2022/03/19 14:01:38;;;;;;;15.90;13.67;;;14.90;1.00;;;;;;5009200;23;20513;-82
2022/03/19 14:04:18;;;;;;;13.80;12.50;;;15.00;1.00;;;;;;5001581;28;20418;-81
2022/03/19 14:06:46;;;;;;;16.90;13.47;;;14.80;1.00;;;;;;5000143;28;20441;-80
2022/03/19 14:09:13;;;;;;;17.30;15.60;;;14.40;1.00;;;;;;4996998;28;20426;-81
2022/03/19 14:11:48;;;;;;;17.63;14.67;;;13.90;1.00;;;;;;5035963;23;20450;-80
2022/03/19 14:14:17;;;;;;;16.70;15.07;;;13.50;1.00;;;;;;5024227;28;20453;-79
2022/03/19 14:17:08;;;;;;;16.37;14.20;;;13.30;1.00;;;;;;5029512;28;20425;-82
2022/03/19 14:19:38;;;;;;;15.07;13.50;;;13.00;1.00;;;;;;5032594;23;20484;-83
2022/03/19 14:22:08;;;;;;;16.33;13.80;;;12.90;1.00;;;;;;5028283;28;20422;-80
2022/03/19 14:24:37;;;;;;;15.20;13.60;;;12.90;1.00;;;;;;5025686;28;21138;-82
2022/03/19 14:27:09;;;;;;;14.30;12.80;;;13.00;1.00;;;;;;5026217;28;20458;-82
2022/03/19 14:29:36;;;;;;;18.53;14.73;;;12.90;1.00;;;;;;5024916;28;20406;-83
2022/03/19 14:32:08;;;;;;;15.20;13.43;;;12.90;1.00;;;;;;5018023;28;20478;-82
2022/03/19 14:34:36;;;;;;;14.33;12.83;;;12.80;1.00;;;;;;5036683;28;20421;-84
2022/03/19 14:37:06;;;;;;;15.97;13.10;;;12.90;1.00;;;;;;5031557;28;20441;-80
2022/03/19 14:39:36;;;;;;;14.63;13.13;;;13.00;1.00;;;;;;5028658;23;20470;-81
2022/03/19 14:42:08;;;;;;;19.80;13.90;;;12.90;1.00;;;;;;4983221;28;20445;-83
2022/03/19 14:44:38;;;;;;;14.83;13.30;;;12.70;1.00;;;;;;5002009;28;20470;-82
2022/03/19 14:47:17;;;;;;;15.93;14.13;;;12.70;1.00;;;;;;5005562;28;20454;-82
2022/03/19 14:49:45;;;;;;;16.30;14.60;;;12.50;1.00;;;;;;5008810;22;20410;-82
2022/03/19 14:52:12;;;;;;;15.33;13.43;;;12.40;1.00;;;;;;5014861;28;20458;-81
2022/03/19 14:54:44;;;;;;;15.07;13.60;;;12.50;1.00;;;;;;5018089;28;20420;-82
2022/03/19 14:57:16;;;;;;;16.40;14.80;;;12.60;1.00;;;;;;5034332;28;20421;-81
2022/03/19 15:07:31;;;;;;;16.87;15.17;;;12.30;1.00;;;;;;5091869;23;20592;-82
2022/03/19 15:14:08;;;;;;;18.23;16.33;;;12.40;1.00;;;;;;4856488;29;20713;-82
2022/03/19 15:16:49;;;;;;;16.30;14.60;;;12.30;1.00;;;;;;4898829;28;20419;-82
2022/03/19 15:19:16;;;;;;;17.83;15.93;;;12.20;1.00;;;;;;4923109;28;20465;-82
2022/03/19 15:21:46;;;;;;;17.93;16.17;;;12.30;1.00;;;;;;5039201;23;20485;-81
2022/03/19 15:24:18;;;;;;;18.53;16.63;;;12.30;1.00;;;;;;5012651;28;21360;-82
2022/03/19 15:26:50;;;;;;;22.03;17.17;;;12.30;1.00;;;;;;5026299;28;20402;-83
2022/03/19 15:29:17;;;;;;;17.87;16.07;;;12.20;1.00;;;;;;5024174;28;20723;-83